Time;durP1;ratioP1;P1;durP2;ratioP2;P2;SDS_P1;SDS_P2;PMS_P1;PMS_P2;Temp;Humidity;BMP_temperature;BMP_pressure;BME280_temperature;BME280_humidity;BME280_pressure;Samples;Min_cycle;Max_cycle;Signal;HPM_P1;HPM_P2
2022/01/28 00:00:12;;;;;;;11.02;7.65;;;;;;;;;;5005318;28;20209;-33
2022/01/28 00:03:11;;;;;;;10.73;7.40;;;;;;;;;;5005436;28;20026;-36
2022/01/28 00:05:30;;;;;;;9.23;6.85;;;;;;;;;;5005778;28;20077;-34
2022/01/28 00:07:56;;;;;;;11.18;8.15;;;;;;;;;;5004995;28;20050;-34
2022/01/28 00:10:22;;;;;;;9.32;6.95;;;;;;;;;;5005282;28;20057;-33
2022/01/28 00:15:44;;;;;;;10.00;7.15;;;;;;;;;;5005026;28;20106;-37
2022/01/28 00:37:38;;;;;;;9.05;5.97;;;;;;;;;;4985341;28;20073;-35
2022/01/28 00:40:04;;;;;;;8.35;5.80;;;;;;;;;;4986750;28;20481;-32
2022/01/28 00:42:29;;;;;;;11.05;6.03;;;;;;;;;;4988748;28;20022;-35
2022/01/28 00:44:57;;;;;;;7.80;5.50;;;;;;;;;;4988735;28;20084;-37
2022/01/28 00:47:22;;;;;;;7.45;5.60;;;;;;;;;;4988570;28;20062;-36
2022/01/28 00:49:48;;;;;;;6.75;5.05;;;;;;;;;;4988889;28;20061;-32
2022/01/28 00:52:13;;;;;;;6.57;5.25;;;;;;;;;;4988738;28;20424;-35
2022/01/28 00:54:39;;;;;;;6.82;5.00;;;;;;;;;;4988899;28;20065;-38
2022/01/28 00:57:04;;;;;;;7.22;5.07;;;;;;;;;;4988947;28;20030;-32
2022/01/28 00:59:30;;;;;;;8.60;5.15;;;;;;;;;;4988587;28;20452;-33
2022/01/28 01:01:55;;;;;;;8.05;5.38;;;;;;;;;;5007621;28;20496;-36
2022/01/28 01:04:23;;;;;;;6.72;5.07;;;;;;;;;;5007880;28;20409;-34
2022/01/28 01:06:48;;;;;;;7.43;5.22;;;;;;;;;;5007710;28;20064;-36
2022/01/28 01:09:13;;;;;;;5.68;4.20;;;;;;;;;;5008052;28;20025;-35
2022/01/28 01:11:41;;;;;;;4.93;4.10;;;;;;;;;;5007875;28;20029;-37
2022/01/28 01:14:06;;;;;;;7.20;4.95;;;;;;;;;;5007710;28;20707;-36
2022/01/28 01:16:42;;;;;;;9.05;5.07;;;;;;;;;;5008005;28;20045;-33
2022/01/28 01:21:39;;;;;;;6.38;4.05;;;;;;;;;;5007796;28;20049;-35
2022/01/28 01:24:07;;;;;;;5.38;4.18;;;;;;;;;;5007412;28;20029;-34
2022/01/28 01:26:36;;;;;;;5.65;4.05;;;;;;;;;;5007443;28;20034;-34
2022/01/28 01:29:05;;;;;;;5.32;3.75;;;;;;;;;;5007461;28;20408;-31
2022/01/28 01:31:31;;;;;;;5.78;4.10;;;;;;;;;;5007529;28;20119;-35
2022/01/28 01:34:13;;;;;;;6.07;4.20;;;;;;;;;;5002688;28;20591;-35
2022/01/28 01:36:38;;;;;;;5.40;3.85;;;;;;;;;;4987823;28;20031;-35
2022/01/28 01:39:04;;;;;;;5.03;3.83;;;;;;;;;;4988082;28;20036;-38
2022/01/28 01:41:37;;;;;;;5.65;4.15;;;;;;;;;;4987798;28;20034;-35
2022/01/28 01:54:25;;;;;;;5.78;3.45;;;;;;;;;;4987550;28;20158;-33
2022/01/28 01:56:51;;;;;;;4.18;3.22;;;;;;;;;;4987410;28;20026;-35
2022/01/28 01:59:16;;;;;;;4.82;3.50;;;;;;;;;;4969787;28;20039;-31
2022/01/28 02:01:43;;;;;;;4.45;3.50;;;;;;;;;;4987140;28;20403;-36
2022/01/28 02:04:09;;;;;;;5.22;3.42;;;;;;;;;;4987758;28;20515;-37
2022/01/28 02:06:35;;;;;;;4.72;3.33;;;;;;;;;;4986988;28;20046;-36
2022/01/28 02:09:00;;;;;;;3.92;3.15;;;;;;;;;;4986211;28;20031;-36
2022/01/28 02:11:26;;;;;;;6.32;3.40;;;;;;;;;;4987721;28;20055;-38
2022/01/28 02:13:52;;;;;;;5.13;3.10;;;;;;;;;;4987296;28;20030;-38
2022/01/28 02:16:18;;;;;;;4.07;3.08;;;;;;;;;;4987105;28;20037;-37
2022/01/28 02:18:43;;;;;;;5.80;3.60;;;;;;;;;;4986693;28;20038;-32
2022/01/28 02:21:12;;;;;;;4.70;3.10;;;;;;;;;;4986752;28;20036;-34
2022/01/28 02:23:38;;;;;;;4.07;2.92;;;;;;;;;;4987051;28;20069;-38
2022/01/28 02:26:04;;;;;;;4.45;2.97;;;;;;;;;;4986675;28;20113;-36
2022/01/28 02:28:34;;;;;;;4.13;2.95;;;;;;;;;;4991471;28;20033;-36
2022/01/28 02:31:03;;;;;;;4.10;3.00;;;;;;;;;;5006635;28;20164;-35
2022/01/28 02:33:29;;;;;;;4.22;3.00;;;;;;;;;;5006358;28;20038;-34
2022/01/28 02:35:56;;;;;;;4.32;2.70;;;;;;;;;;5006617;28;20512;-36
2022/01/28 02:38:22;;;;;;;4.03;2.78;;;;;;;;;;5006354;28;20496;-31
2022/01/28 02:40:54;;;;;;;3.58;2.50;;;;;;;;;;5006665;28;20872;-35
2022/01/28 02:45:50;;;;;;;3.63;2.70;;;;;;;;;;5006348;28;20029;-37
2022/01/28 02:48:19;;;;;;;3.50;2.63;;;;;;;;;;5006511;28;20415;-38
2022/01/28 02:51:00;;;;;;;4.82;2.58;;;;;;;;;;5005954;28;20030;-34
2022/01/28 02:53:29;;;;;;;3.50;2.70;;;;;;;;;;5005965;28;20116;-38
2022/01/28 02:56:03;;;;;;;4.78;2.33;;;;;;;;;;5005878;28;20684;-36
2022/01/28 02:58:28;;;;;;;2.92;2.22;;;;;;;;;;5006298;28;20084;-37
2022/01/28 03:00:57;;;;;;;3.03;2.38;;;;;;;;;;5006007;28;21013;-32
2022/01/28 03:03:23;;;;;;;3.95;2.55;;;;;;;;;;5005286;28;20401;-33
2022/01/28 03:05:50;;;;;;;3.70;2.53;;;;;;;;;;5004363;28;20034;-34
2022/01/28 03:08:15;;;;;;;3.42;2.53;;;;;;;;;;5006106;28;20111;-34
2022/01/28 03:16:20;;;;;;;3.38;2.58;;;;;;;;;;5004410;28;20109;-34
2022/01/28 03:21:54;;;;;;;3.10;2.38;;;;;;;;;;5005571;28;20037;-34
2022/01/28 03:24:09;;;;;;;2.63;2.10;;;;;;;;;;5004171;28;20653;-35
2022/01/28 03:26:34;;;;;;;3.30;2.35;;;;;;;;;;5005308;28;20029;-38
2022/01/28 03:29:00;;;;;;;3.28;2.28;;;;;;;;;;4988932;28;20042;-33
2022/01/28 03:31:25;;;;;;;2.88;1.98;;;;;;;;;;4985922;28;20022;-35
2022/01/28 03:33:51;;;;;;;3.65;2.38;;;;;;;;;;4985815;28;20046;-35
2022/01/28 03:36:17;;;;;;;3.42;2.20;;;;;;;;;;5012282;28;20041;-33
2022/01/28 03:38:43;;;;;;;2.80;2.10;;;;;;;;;;5022124;28;20029;-31
2022/01/28 03:41:13;;;;;;;2.78;1.80;;;;;;;;;;5005423;28;20091;-34
2022/01/28 03:43:42;;;;;;;2.83;2.03;;;;;;;;;;5004279;28;20033;-36
2022/01/28 03:46:07;;;;;;;2.83;2.30;;;;;;;;;;5005017;28;20022;-33
2022/01/28 03:48:33;;;;;;;2.75;2.10;;;;;;;;;;5005409;28;20044;-31
2022/01/28 03:50:58;;;;;;;2.85;1.95;;;;;;;;;;5005094;28;20421;-32
2022/01/28 03:53:24;;;;;;;2.40;1.98;;;;;;;;;;5005551;28;20029;-36
2022/01/28 03:55:52;;;;;;;4.38;2.03;;;;;;;;;;5004814;28;20419;-38
2022/01/28 03:58:18;;;;;;;2.58;2.08;;;;;;;;;;5005194;28;20045;-38
2022/01/28 04:00:44;;;;;;;2.00;1.70;;;;;;;;;;5004982;28;20044;-35
2022/01/28 04:03:37;;;;;;;2.42;1.90;;;;;;;;;;5005320;28;20084;-35
2022/01/28 04:11:31;;;;;;;3.22;2.28;;;;;;;;;;5005352;28;20049;-33
2022/01/28 04:14:00;;;;;;;3.20;2.10;;;;;;;;;;5006555;28;20030;-35
2022/01/28 04:16:33;;;;;;;2.92;2.20;;;;;;;;;;5009193;28;20032;-33
2022/01/28 04:19:01;;;;;;;1.98;1.60;;;;;;;;;;5005459;28;20092;-33
2022/01/28 04:21:29;;;;;;;2.20;1.80;;;;;;;;;;4992460;28;20040;-39
2022/01/28 04:23:54;;;;;;;2.22;1.83;;;;;;;;;;4998908;28;20037;-36
2022/01/28 04:26:20;;;;;;;4.07;1.92;;;;;;;;;;5008065;28;20030;-37
2022/01/28 04:28:45;;;;;;;2.58;1.90;;;;;;;;;;4996210;28;20029;-32
2022/01/28 04:31:11;;;;;;;3.05;2.10;;;;;;;;;;4992225;28;20484;-35
2022/01/28 04:33:36;;;;;;;1.80;1.48;;;;;;;;;;4996521;28;20049;-33
2022/01/28 04:36:02;;;;;;;1.95;1.58;;;;;;;;;;5008508;28;20084;-38
2022/01/28 04:38:42;;;;;;;2.58;1.95;;;;;;;;;;5008730;28;20022;-36
2022/01/28 04:43:53;;;;;;;2.10;1.83;;;;;;;;;;5008637;28;20488;-34
2022/01/28 04:48:55;;;;;;;2.15;1.80;;;;;;;;;;5008530;28;20045;-36
2022/01/28 04:57:04;;;;;;;2.47;1.60;;;;;;;;;;5007978;28;20041;-38
2022/01/28 05:05:01;;;;;;;3.00;2.05;;;;;;;;;;5008080;28;20022;-34
2022/01/28 05:15:29;;;;;;;3.35;2.22;;;;;;;;;;4988228;28;20493;-35
2022/01/28 05:24:06;;;;;;;3.00;2.17;;;;;;;;;;4988210;28;20038;-35
2022/01/28 05:26:32;;;;;;;2.72;2.00;;;;;;;;;;4987303;28;20048;-36
2022/01/28 05:28:57;;;;;;;3.00;2.28;;;;;;;;;;5000468;28;20053;-38
2022/01/28 05:31:23;;;;;;;5.57;2.20;;;;;;;;;;5000942;28;20123;-33
2022/01/28 05:33:49;;;;;;;12.02;2.65;;;;;;;;;;5004987;28;20072;-31
2022/01/28 05:36:15;;;;;;;5.75;2.78;;;;;;;;;;5005350;28;20115;-38
2022/01/28 05:38:40;;;;;;;6.32;2.45;;;;;;;;;;5000961;28;20041;-33
2022/01/28 05:41:05;;;;;;;6.50;2.78;;;;;;;;;;5004548;28;20038;-32
2022/01/28 05:43:31;;;;;;;6.32;3.28;;;;;;;;;;5004372;28;20072;-32
2022/01/28 05:45:56;;;;;;;6.63;2.80;;;;;;;;;;5004523;28;20034;-35
2022/01/28 05:48:22;;;;;;;8.65;3.17;;;;;;;;;;5004258;28;20057;-37
2022/01/28 05:50:48;;;;;;;10.48;2.97;;;;;;;;;;5005423;28;20033;-37
2022/01/28 05:53:14;;;;;;;6.70;3.15;;;;;;;;;;5004855;28;20132;-35
2022/01/28 05:55:39;;;;;;;5.15;3.05;;;;;;;;;;4988583;28;20030;-37
2022/01/28 05:58:05;;;;;;;7.05;3.60;;;;;;;;;;4985420;28;20117;-35
2022/01/28 06:00:31;;;;;;;12.57;3.80;;;;;;;;;;4993343;28;20038;-32
2022/01/28 06:02:56;;;;;;;5.97;4.00;;;;;;;;;;5004824;28;20787;-36
2022/01/28 06:05:21;;;;;;;8.02;4.50;;;;;;;;;;5000877;28;20129;-35
2022/01/28 06:07:47;;;;;;;8.88;4.78;;;;;;;;;;4997039;28;20057;-33
2022/01/28 06:10:14;;;;;;;7.47;4.22;;;;;;;;;;5003349;28;20144;-34
2022/01/28 06:12:44;;;;;;;8.35;4.88;;;;;;;;;;4997902;28;20036;-30
2022/01/28 06:15:10;;;;;;;7.65;3.97;;;;;;;;;;4985005;28;20037;-33
2022/01/28 06:17:35;;;;;;;12.10;4.20;;;;;;;;;;4984764;28;20034;-35
2022/01/28 06:20:02;;;;;;;8.00;3.50;;;;;;;;;;4984898;28;20030;-34
2022/01/28 06:22:27;;;;;;;5.78;3.70;;;;;;;;;;4984632;28;20615;-38
2022/01/28 06:24:53;;;;;;;7.20;3.80;;;;;;;;;;4984606;28;20022;-37
2022/01/28 06:27:18;;;;;;;7.50;4.30;;;;;;;;;;4984057;28;20579;-37
2022/01/28 06:29:44;;;;;;;5.07;3.72;;;;;;;;;;4983357;28;20034;-35
2022/01/28 06:32:11;;;;;;;5.40;4.00;;;;;;;;;;4984080;28;20037;-32
2022/01/28 06:34:38;;;;;;;8.82;4.15;;;;;;;;;;4988936;28;20058;-34
2022/01/28 06:37:04;;;;;;;7.63;3.90;;;;;;;;;;4996130;28;20034;-32
2022/01/28 06:39:32;;;;;;;8.32;4.18;;;;;;;;;;4996914;28;20026;-33
2022/01/28 06:41:57;;;;;;;6.03;4.10;;;;;;;;;;5003404;28;20026;-34
2022/01/28 06:44:23;;;;;;;9.25;4.13;;;;;;;;;;5003540;28;20038;-35
2022/01/28 06:46:49;;;;;;;5.85;3.75;;;;;;;;;;5003036;28;20057;-33
2022/01/28 06:49:14;;;;;;;8.55;4.57;;;;;;;;;;5004042;28;20030;-34
2022/01/28 06:51:40;;;;;;;6.47;4.43;;;;;;;;;;5002058;28;20038;-33
2022/01/28 06:54:05;;;;;;;7.32;4.97;;;;;;;;;;4994023;28;20070;-34
2022/01/28 06:56:31;;;;;;;7.18;4.63;;;;;;;;;;4992183;28;20054;-33
2022/01/28 06:58:56;;;;;;;7.72;5.35;;;;;;;;;;4990992;28;20045;-35
2022/01/28 07:01:22;;;;;;;8.40;5.35;;;;;;;;;;5002940;28;20033;-35
2022/01/28 07:03:47;;;;;;;6.90;4.93;;;;;;;;;;4995414;28;20045;-37
2022/01/28 07:06:14;;;;;;;8.05;5.10;;;;;;;;;;4991351;28;20026;-35
2022/01/28 07:08:39;;;;;;;12.43;5.38;;;;;;;;;;4984758;28;20123;-34
2022/01/28 07:11:05;;;;;;;9.35;5.15;;;;;;;;;;4994536;28;20121;-36
2022/01/28 07:13:30;;;;;;;9.27;4.95;;;;;;;;;;4999742;28;20041;-33
2022/01/28 07:15:55;;;;;;;8.57;5.28;;;;;;;;;;4993318;28;20033;-32
2022/01/28 07:18:23;;;;;;;9.35;5.53;;;;;;;;;;4990866;28;20432;-34
2022/01/28 07:20:48;;;;;;;8.63;5.32;;;;;;;;;;4992748;28;20108;-34
2022/01/28 07:23:14;;;;;;;10.40;4.90;;;;;;;;;;5003446;28;20049;-31
2022/01/28 07:25:39;;;;;;;12.35;5.20;;;;;;;;;;5002866;28;20049;-35
2022/01/28 07:28:05;;;;;;;9.25;5.15;;;;;;;;;;5000263;28;20121;-35
2022/01/28 07:30:31;;;;;;;11.60;6.00;;;;;;;;;;5003345;28;20042;-36
2022/01/28 07:32:59;;;;;;;10.23;5.47;;;;;;;;;;4999729;28;20044;-30
2022/01/28 07:35:25;;;;;;;12.88;5.90;;;;;;;;;;4991314;28;20046;-34
2022/01/28 07:37:50;;;;;;;11.02;6.00;;;;;;;;;;4997994;28;20084;-35
2022/01/28 07:40:16;;;;;;;13.07;5.82;;;;;;;;;;5001814;28;20022;-33
2022/01/28 07:42:41;;;;;;;10.68;5.65;;;;;;;;;;5002573;28;20045;-33
2022/01/28 07:45:08;;;;;;;8.95;6.15;;;;;;;;;;5002177;28;20025;-35
2022/01/28 07:47:36;;;;;;;14.98;6.10;;;;;;;;;;4997689;28;20562;-34
2022/01/28 07:50:03;;;;;;;10.93;5.97;;;;;;;;;;4994468;28;20022;-36
2022/01/28 07:52:28;;;;;;;11.52;5.82;;;;;;;;;;5007960;28;20060;-33
2022/01/28 07:54:54;;;;;;;8.35;5.90;;;;;;;;;;5000327;28;20075;-36
2022/01/28 07:57:19;;;;;;;8.60;5.40;;;;;;;;;;4989891;28;20110;-35
2022/01/28 07:59:45;;;;;;;9.05;5.85;;;;;;;;;;4997513;28;20029;-34
2022/01/28 08:02:10;;;;;;;8.77;5.90;;;;;;;;;;5000584;28;20623;-34
2022/01/28 08:04:38;;;;;;;9.63;5.97;;;;;;;;;;4993271;28;20077;-33
2022/01/28 08:07:04;;;;;;;30.13;7.00;;;;;;;;;;5000386;28;20034;-33
2022/01/28 08:09:29;;;;;;;13.85;7.13;;;;;;;;;;5006553;28;20033;-38
2022/01/28 08:11:55;;;;;;;18.40;5.82;;;;;;;;;;5000214;28;20573;-32
2022/01/28 08:14:20;;;;;;;17.02;6.13;;;;;;;;;;5007554;28;20048;-31
2022/01/28 08:16:46;;;;;;;40.35;7.43;;;;;;;;;;5010385;28;20056;-36
2022/01/28 08:19:11;;;;;;;68.75;7.85;;;;;;;;;;5010313;28;20033;-38
2022/01/28 08:21:36;;;;;;;27.30;6.57;;;;;;;;;;5022379;28;20062;-37
2022/01/28 08:24:02;;;;;;;12.88;5.97;;;;;;;;;;5009494;28;20426;-35
2022/01/28 08:26:28;;;;;;;17.50;6.78;;;;;;;;;;5022069;28;20045;-40
2022/01/28 08:28:53;;;;;;;19.48;6.13;;;;;;;;;;5015179;28;20053;-31
2022/01/28 08:31:19;;;;;;;15.93;6.25;;;;;;;;;;5009869;28;20022;-33
2022/01/28 08:33:44;;;;;;;14.55;5.22;;;;;;;;;;5028421;28;20049;-31
2022/01/28 08:36:11;;;;;;;22.70;6.15;;;;;;;;;;5017893;28;20037;-35
2022/01/28 08:38:43;;;;;;;14.57;6.28;;;;;;;;;;5013325;28;20025;-32
2022/01/28 08:41:11;;;;;;;15.80;5.47;;;;;;;;;;5008160;28;20132;-33
2022/01/28 08:43:37;;;;;;;13.57;5.80;;;;;;;;;;5007163;28;20141;-32
2022/01/28 08:46:03;;;;;;;12.20;6.15;;;;;;;;;;4998311;28;20121;-33
2022/01/28 08:48:28;;;;;;;13.93;6.82;;;;;;;;;;4996660;28;20026;-38
2022/01/28 08:50:54;;;;;;;14.50;6.28;;;;;;;;;;5001523;28;20400;-33
2022/01/28 08:53:19;;;;;;;10.90;6.25;;;;;;;;;;5003549;28;20026;-31
2022/01/28 08:55:45;;;;;;;9.80;5.78;;;;;;;;;;5000458;28;20124;-35
2022/01/28 08:58:10;;;;;;;11.35;6.00;;;;;;;;;;5005091;28;20508;-31
2022/01/28 09:00:36;;;;;;;10.02;6.28;;;;;;;;;;4987662;28;20106;-36
2022/01/28 09:03:02;;;;;;;9.48;6.05;;;;;;;;;;5003188;28;20038;-34
2022/01/28 09:05:28;;;;;;;9.80;6.50;;;;;;;;;;5004570;28;20481;-36
2022/01/28 09:07:54;;;;;;;10.18;6.40;;;;;;;;;;4990570;28;20601;-35
2022/01/28 09:10:24;;;;;;;8.25;6.10;;;;;;;;;;5003965;28;20038;-33
2022/01/28 09:15:40;;;;;;;10.52;5.88;;;;;;;;;;5005699;28;20033;-33
2022/01/28 09:18:07;;;;;;;10.48;5.82;;;;;;;;;;5005160;28;20868;-37
2022/01/28 09:20:33;;;;;;;13.13;6.43;;;;;;;;;;5005801;28;20030;-30
2022/01/28 09:22:59;;;;;;;11.45;5.65;;;;;;;;;;4990851;28;20061;-36
2022/01/28 09:25:25;;;;;;;10.18;5.85;;;;;;;;;;4986105;28;20030;-36
2022/01/28 09:27:50;;;;;;;10.05;5.60;;;;;;;;;;4992563;28;20044;-36
2022/01/28 09:30:16;;;;;;;9.73;5.95;;;;;;;;;;5004923;28;20018;-33
2022/01/28 09:32:41;;;;;;;9.40;6.15;;;;;;;;;;5004902;28;20030;-34
2022/01/28 09:35:07;;;;;;;10.98;6.05;;;;;;;;;;5005064;28;20034;-36
2022/01/28 09:37:34;;;;;;;8.10;6.15;;;;;;;;;;5005496;28;20113;-31
2022/01/28 09:40:00;;;;;;;8.57;5.25;;;;;;;;;;5005014;28;20028;-34
2022/01/28 09:42:29;;;;;;;10.40;6.32;;;;;;;;;;5004900;28;20037;-35
2022/01/28 09:44:55;;;;;;;8.35;5.88;;;;;;;;;;5003798;28;20084;-35
2022/01/28 09:47:21;;;;;;;9.30;5.88;;;;;;;;;;5004427;28;20046;-36
2022/01/28 09:49:46;;;;;;;8.55;6.00;;;;;;;;;;5004713;28;20076;-31
2022/01/28 09:52:12;;;;;;;10.77;5.90;;;;;;;;;;5004246;28;20034;-35
2022/01/28 09:54:38;;;;;;;9.23;6.25;;;;;;;;;;5004804;28;20428;-35
2022/01/28 09:57:04;;;;;;;8.02;5.63;;;;;;;;;;5004651;28;20467;-33
2022/01/28 09:59:30;;;;;;;9.82;6.85;;;;;;;;;;5001569;28;20029;-38
2022/01/28 10:01:56;;;;;;;9.45;5.93;;;;;;;;;;4996793;28;20029;-36
2022/01/28 10:04:22;;;;;;;9.27;5.70;;;;;;;;;;5003419;28;20116;-34
2022/01/28 10:06:47;;;;;;;8.23;6.22;;;;;;;;;;5004327;28;20022;-36
2022/01/28 10:09:17;;;;;;;8.52;5.75;;;;;;;;;;4993919;28;20113;-34
2022/01/28 10:11:44;;;;;;;10.30;6.22;;;;;;;;;;4988990;28;20041;-33
2022/01/28 10:14:19;;;;;;;8.32;5.80;;;;;;;;;;5004698;28;20434;-36
2022/01/28 10:16:58;;;;;;;7.95;5.47;;;;;;;;;;5004280;28;20484;-36
2022/01/28 10:19:27;;;;;;;21.80;10.65;;;;;;;;;;4998856;28;20045;-34
2022/01/28 10:21:53;;;;;;;24.65;11.20;;;;;;;;;;4996891;28;20030;-30
2022/01/28 10:24:26;;;;;;;25.15;13.05;;;;;;;;;;4984953;28;20221;-36
2022/01/28 10:27:09;;;;;;;28.00;13.63;;;;;;;;;;4987793;28;20034;-39
2022/01/28 10:29:39;;;;;;;28.33;16.45;;;;;;;;;;5004198;28;20284;-31
2022/01/28 10:32:06;;;;;;;28.15;18.45;;;;;;;;;;5003571;28;20073;-34
2022/01/28 10:34:33;;;;;;;28.55;19.20;;;;;;;;;;5003872;28;20050;-34
2022/01/28 10:37:11;;;;;;;28.55;18.98;;;;;;;;;;5002407;28;20057;-36
2022/01/28 10:39:50;;;;;;;28.73;19.08;;;;;;;;;;4997537;28;20034;-35
2022/01/28 10:42:19;;;;;;;30.25;18.60;;;;;;;;;;5003686;28;20045;-34
2022/01/28 10:44:58;;;;;;;22.38;16.35;;;;;;;;;;5001085;28;20669;-35
2022/01/28 10:47:38;;;;;;;23.65;16.17;;;;;;;;;;4997282;28;20046;-33
2022/01/28 10:50:22;;;;;;;21.60;14.93;;;;;;;;;;5003737;28;20068;-32
2022/01/28 10:53:07;;;;;;;21.92;14.30;;;;;;;;;;5003918;28;20388;-31
2022/01/28 10:55:37;;;;;;;24.23;13.70;;;;;;;;;;4995415;28;20519;-33
2022/01/28 10:58:04;;;;;;;23.70;14.50;;;;;;;;;;5005450;28;20100;-37
2022/01/28 11:00:31;;;;;;;18.35;13.30;;;;;;;;;;4999025;28;20030;-38
2022/01/28 11:03:02;;;;;;;20.00;13.52;;;;;;;;;;4997182;28;20045;-37
2022/01/28 11:05:29;;;;;;;22.23;13.40;;;;;;;;;;5000248;28;20026;-36
2022/01/28 11:07:56;;;;;;;18.92;13.40;;;;;;;;;;5003242;28;20033;-37
2022/01/28 11:10:21;;;;;;;18.77;12.70;;;;;;;;;;5002170;28;20127;-34
2022/01/28 11:12:47;;;;;;;19.73;12.50;;;;;;;;;;5003588;28;20484;-31
2022/01/28 11:15:12;;;;;;;17.65;13.02;;;;;;;;;;5002470;28;20080;-36
2022/01/28 11:17:38;;;;;;;21.02;12.60;;;;;;;;;;5003442;28;20026;-35
2022/01/28 11:20:05;;;;;;;19.27;12.05;;;;;;;;;;5003549;28;20554;-32
2022/01/28 11:22:40;;;;;;;22.13;12.13;;;;;;;;;;5001135;28;20041;-37
2022/01/28 11:25:35;;;;;;;19.92;11.90;;;;;;;;;;5001460;28;20107;-34
2022/01/28 11:28:04;;;;;;;19.83;11.60;;;;;;;;;;5001798;28;20034;-35
2022/01/28 11:30:30;;;;;;;20.67;12.77;;;;;;;;;;4998736;28;20599;-34
2022/01/28 11:33:05;;;;;;;18.60;11.45;;;;;;;;;;5002961;28;20068;-37
2022/01/28 11:35:40;;;;;;;18.58;11.45;;;;;;;;;;4997743;28;20066;-34
2022/01/28 11:38:28;;;;;;;15.98;11.55;;;;;;;;;;5000757;28;20038;-36
2022/01/28 11:40:58;;;;;;;19.38;11.65;;;;;;;;;;4995166;28;20439;-38
2022/01/28 11:43:25;;;;;;;15.88;11.15;;;;;;;;;;4994670;28;20057;-38
2022/01/28 11:46:16;;;;;;;18.38;11.25;;;;;;;;;;4993683;28;20040;-35
2022/01/28 11:49:02;;;;;;;17.05;10.98;;;;;;;;;;4994083;28;20030;-33
2022/01/28 11:51:37;;;;;;;18.08;10.77;;;;;;;;;;4998717;28;20041;-33
2022/01/28 11:54:07;;;;;;;17.15;11.73;;;;;;;;;;4992211;28;20030;-35
2022/01/28 11:56:33;;;;;;;18.98;10.70;;;;;;;;;;4991909;28;20038;-32
2022/01/28 11:59:03;;;;;;;16.85;10.48;;;;;;;;;;4991339;28;20026;-34
2022/01/28 12:01:38;;;;;;;14.45;10.82;;;;;;;;;;4991192;28;20034;-36
2022/01/28 12:04:29;;;;;;;15.77;11.65;;;;;;;;;;4990319;28;20125;-35
2022/01/28 12:06:59;;;;;;;14.18;10.30;;;;;;;;;;5001291;28;20030;-33
2022/01/28 12:09:25;;;;;;;18.08;10.82;;;;;;;;;;4997887;28;20642;-33
2022/01/28 12:11:51;;;;;;;19.73;11.18;;;;;;;;;;4986113;28;20029;-33
2022/01/28 12:14:17;;;;;;;14.88;10.63;;;;;;;;;;4993483;28;20037;-31
2022/01/28 12:16:46;;;;;;;18.25;11.07;;;;;;;;;;4996366;28;20038;-31
2022/01/28 12:19:22;;;;;;;17.25;10.30;;;;;;;;;;4994757;28;20552;-38
2022/01/28 12:22:09;;;;;;;14.90;10.50;;;;;;;;;;4994363;28;20030;-31
2022/01/28 12:24:35;;;;;;;15.40;9.10;;;;;;;;;;4994032;28;20117;-36
2022/01/28 12:27:00;;;;;;;14.57;9.77;;;;;;;;;;4993214;28;20028;-36
2022/01/28 12:29:36;;;;;;;15.77;9.77;;;;;;;;;;4989541;28;20054;-33
2022/01/28 12:32:03;;;;;;;14.32;9.30;;;;;;;;;;4998189;28;20029;-35
2022/01/28 12:34:28;;;;;;;19.83;9.30;;;;;;;;;;4991760;28;20050;-35
2022/01/28 12:36:57;;;;;;;12.82;9.05;;;;;;;;;;4994487;28;20030;-35
2022/01/28 12:39:33;;;;;;;14.23;9.45;;;;;;;;;;5000947;28;20042;-35
2022/01/28 12:42:09;;;;;;;12.25;8.35;;;;;;;;;;5001773;28;20132;-34
2022/01/28 12:44:35;;;;;;;11.85;8.43;;;;;;;;;;5001432;28;20035;-37
2022/01/28 12:47:05;;;;;;;12.70;8.25;;;;;;;;;;4993407;28;20096;-33
2022/01/28 12:49:32;;;;;;;17.38;8.98;;;;;;;;;;5001353;28;20647;-35
2022/01/28 12:52:00;;;;;;;11.88;8.10;;;;;;;;;;5004187;28;20112;-33
2022/01/28 12:54:36;;;;;;;12.23;8.85;;;;;;;;;;4999884;28;20120;-31
2022/01/28 12:57:03;;;;;;;15.45;7.82;;;;;;;;;;4998093;28;20036;-34
2022/01/28 12:59:28;;;;;;;18.05;8.05;;;;;;;;;;5004273;28;20030;-35
2022/01/28 13:01:54;;;;;;;13.07;7.88;;;;;;;;;;4997421;28;20041;-34
2022/01/28 13:04:23;;;;;;;12.40;8.23;;;;;;;;;;5002295;28;20341;-32
2022/01/28 13:09:17;;;;;;;10.82;7.97;;;;;;;;;;5004806;28;20579;-35
2022/01/28 13:11:48;;;;;;;11.30;7.18;;;;;;;;;;5002860;28;20037;-35
2022/01/28 13:14:14;;;;;;;11.02;7.82;;;;;;;;;;5014104;28;20294;-37
2022/01/28 13:16:44;;;;;;;10.40;7.63;;;;;;;;;;4998983;28;20057;-34
2022/01/28 13:19:10;;;;;;;10.35;7.40;;;;;;;;;;4999348;28;20033;-37
2022/01/28 13:21:36;;;;;;;13.13;7.70;;;;;;;;;;5005747;28;20022;-36
2022/01/28 13:24:17;;;;;;;10.07;7.13;;;;;;;;;;5004030;28;21663;-37
2022/01/28 13:27:00;;;;;;;14.32;7.93;;;;;;;;;;5015612;28;20033;-36
2022/01/28 13:29:32;;;;;;;12.10;8.02;;;;;;;;;;5001761;28;20045;-33
2022/01/28 13:32:00;;;;;;;11.07;6.80;;;;;;;;;;5007886;28;20029;-34
2022/01/28 13:34:25;;;;;;;8.82;6.38;;;;;;;;;;5012787;28;20296;-35
2022/01/28 13:36:53;;;;;;;8.30;6.03;;;;;;;;;;5004870;28;20057;-35
2022/01/28 13:39:20;;;;;;;10.65;6.53;;;;;;;;;;5010216;28;20088;-31
2022/01/28 13:41:50;;;;;;;10.90;6.30;;;;;;;;;;5018980;28;20419;-34
2022/01/28 13:44:26;;;;;;;10.43;6.93;;;;;;;;;;5023802;28;20029;-31
2022/01/28 13:46:58;;;;;;;9.48;6.15;;;;;;;;;;5024658;28;20083;-35
2022/01/28 13:49:32;;;;;;;8.02;5.95;;;;;;;;;;5024518;28;20033;-34
2022/01/28 13:52:14;;;;;;;8.40;5.93;;;;;;;;;;5024584;28;20029;-34
2022/01/28 13:54:40;;;;;;;6.85;5.63;;;;;;;;;;5024695;28;20029;-36
2022/01/28 13:57:06;;;;;;;8.95;5.78;;;;;;;;;;5024506;28;20187;-35
2022/01/28 13:59:33;;;;;;;7.75;5.82;;;;;;;;;;5024264;28;20043;-30
2022/01/28 14:02:01;;;;;;;9.35;5.97;;;;;;;;;;5024286;28;20068;-35
2022/01/28 14:04:37;;;;;;;10.23;5.53;;;;;;;;;;5024491;28;20049;-36
2022/01/28 14:07:24;;;;;;;7.47;5.93;;;;;;;;;;5022829;28;20036;-32
2022/01/28 14:10:12;;;;;;;7.72;5.47;;;;;;;;;;5023209;28;20389;-34
2022/01/28 14:17:56;;;;;;;6.80;5.30;;;;;;;;;;5002845;28;20057;-34
2022/01/28 14:20:22;;;;;;;7.75;5.57;;;;;;;;;;5004249;28;20042;-32
2022/01/28 14:22:48;;;;;;;9.77;6.22;;;;;;;;;;5001338;28;20079;-32
2022/01/28 14:25:13;;;;;;;9.30;6.13;;;;;;;;;;5005938;28;20633;-37
2022/01/28 14:30:16;;;;;;;8.75;6.50;;;;;;;;;;5014305;28;20112;-34
2022/01/28 14:32:42;;;;;;;10.65;6.93;;;;;;;;;;5023584;28;20041;-34
2022/01/28 14:35:07;;;;;;;9.40;6.57;;;;;;;;;;5020222;28;20544;-35
2022/01/28 14:37:37;;;;;;;11.23;6.47;;;;;;;;;;5005298;28;20104;-35
2022/01/28 14:40:05;;;;;;;9.95;6.57;;;;;;;;;;5003859;28;20056;-36
2022/01/28 14:42:31;;;;;;;12.63;6.60;;;;;;;;;;5000757;28;20049;-32
2022/01/28 14:44:57;;;;;;;10.40;6.22;;;;;;;;;;5000362;28;20069;-32
2022/01/28 14:47:22;;;;;;;11.30;6.63;;;;;;;;;;4998402;28;20092;-37
2022/01/28 14:49:48;;;;;;;9.05;5.95;;;;;;;;;;5000558;28;20037;-38
2022/01/28 14:52:18;;;;;;;9.10;5.85;;;;;;;;;;4985416;28;20467;-37
2022/01/28 14:54:43;;;;;;;8.93;5.93;;;;;;;;;;5000477;28;20042;-33
2022/01/28 14:57:10;;;;;;;7.88;5.43;;;;;;;;;;5003270;28;20032;-35
2022/01/28 14:59:37;;;;;;;10.05;6.28;;;;;;;;;;5003030;28;20131;-31
2022/01/28 15:02:03;;;;;;;9.73;6.00;;;;;;;;;;5003755;28;20030;-34
2022/01/28 15:04:28;;;;;;;9.93;5.60;;;;;;;;;;5011560;28;20037;-32
2022/01/28 15:06:54;;;;;;;9.40;5.97;;;;;;;;;;5010273;28;20061;-34
2022/01/28 15:09:19;;;;;;;9.90;5.30;;;;;;;;;;5016567;28;20037;-32
2022/01/28 15:11:48;;;;;;;8.75;5.65;;;;;;;;;;4998510;28;20384;-36
2022/01/28 15:14:21;;;;;;;9.57;6.05;;;;;;;;;;5001769;28;20421;-39
2022/01/28 15:16:46;;;;;;;;;;;;;;;;;;4999712;28;20512;-34
2022/01/28 15:19:12;;;;;;;8.18;6.07;;;;;;;;;;4999999;28;20047;-37
2022/01/28 15:21:38;;;;;;;7.88;5.55;;;;;;;;;;4999270;28;20420;-37
2022/01/28 15:24:04;;;;;;;8.07;5.10;;;;;;;;;;4996868;28;20254;-32
2022/01/28 15:26:29;;;;;;;9.10;5.53;;;;;;;;;;4995766;28;20512;-36
2022/01/28 15:29:09;;;;;;;7.85;5.30;;;;;;;;;;5003400;28;20227;-32
2022/01/28 15:37:05;;;;;;;11.02;5.70;;;;;;;;;;5002887;28;20125;-37
2022/01/28 15:39:35;;;;;;;9.38;5.30;;;;;;;;;;4989273;28;20026;-36
2022/01/28 15:42:05;;;;;;;11.65;5.65;;;;;;;;;;4999557;28;20137;-38
2022/01/28 15:44:31;;;;;;;10.60;5.30;;;;;;;;;;4996931;28;20421;-37
2022/01/28 15:46:56;;;;;;;11.90;5.28;;;;;;;;;;4993158;28;20556;-40
2022/01/28 15:49:22;;;;;;;7.43;4.43;;;;;;;;;;5022639;28;20120;-33
2022/01/28 15:52:13;;;;;;;8.77;5.07;;;;;;;;;;5022597;28;20037;-32
2022/01/28 15:54:38;;;;;;;8.38;5.25;;;;;;;;;;5004319;28;20531;-37
2022/01/28 15:57:04;;;;;;;8.65;5.07;;;;;;;;;;5002923;28;20061;-34
2022/01/28 15:59:30;;;;;;;8.43;4.75;;;;;;;;;;5003122;28;20061;-35
2022/01/28 16:01:56;;;;;;;10.52;5.88;;;;;;;;;;5001981;28;20038;-35
2022/01/28 16:04:22;;;;;;;9.25;5.15;;;;;;;;;;5003239;28;20048;-33
2022/01/28 16:06:48;;;;;;;8.95;5.13;;;;;;;;;;5001869;28;20030;-38
2022/01/28 16:09:14;;;;;;;10.93;5.53;;;;;;;;;;5002509;28;20052;-35
2022/01/28 16:14:29;;;;;;;7.93;5.35;;;;;;;;;;5006886;28;20038;-35
2022/01/28 16:17:24;;;;;;;10.30;5.88;;;;;;;;;;5006670;28;20376;-37
2022/01/28 16:19:50;;;;;;;10.32;6.03;;;;;;;;;;4986987;28;20655;-35
2022/01/28 16:22:15;;;;;;;8.00;4.93;;;;;;;;;;4992837;28;20120;-34
2022/01/28 16:24:41;;;;;;;10.48;5.45;;;;;;;;;;5006039;28;20108;-37